Time;durP1;ratioP1;P1;durP2;ratioP2;P2;SDS_P1;SDS_P2;PMS_P1;PMS_P2;Temp;Humidity;BMP_temperature;BMP_pressure;BME280_temperature;BME280_humidity;BME280_pressure;Samples;Min_cycle;Max_cycle;Signal;HPM_P1;HPM_P2
2024/02/12 00:00:32;;;;;;;168.20;41.30;;;;;;;8.88;65.16;99003.41;108114;1254;60870;-66
2024/02/12 00:03:00;;;;;;;200.70;46.30;;;;;;;8.95;65.03;98998.14;108130;1253;59970;-65
2024/02/12 00:05:28;;;;;;;145.00;39.30;;;;;;;8.92;64.91;98994.41;108112;1254;72962;-65
2024/02/12 00:07:56;;;;;;;206.60;43.10;;;;;;;8.87;65.33;98993.48;108017;1253;71165;-67
2024/02/12 00:10:23;;;;;;;210.80;41.70;;;;;;;8.93;65.16;98998.25;108084;1253;72655;-65
2024/02/12 00:12:52;;;;;;;135.80;38.20;;;;;;;9.00;64.99;98991.95;108047;1253;60026;-63
2024/02/12 00:15:21;;;;;;;258.00;47.40;;;;;;;9.09;64.74;98988.03;108070;1254;59637;-65
2024/02/12 00:17:49;;;;;;;165.60;40.50;;;;;;;9.12;64.64;98984.92;108116;1254;72442;-64
2024/02/12 00:20:16;;;;;;;187.00;46.70;;;;;;;9.08;64.59;98971.26;108078;1254;69192;-66
2024/02/12 00:22:44;;;;;;;175.10;43.90;;;;;;;9.17;64.39;98969.96;108156;1254;71580;-65
2024/02/12 00:25:13;;;;;;;165.80;44.90;;;;;;;9.19;64.15;98966.88;108063;1254;60911;-64
2024/02/12 00:27:41;;;;;;;204.90;42.10;;;;;;;9.19;64.14;98967.73;107832;1254;60067;-67
2024/02/12 00:30:10;;;;;;;140.70;37.30;;;;;;;9.20;64.13;98970.52;108036;1253;73723;-63
2024/02/12 00:32:37;;;;;;;163.10;39.90;;;;;;;9.14;64.30;98969.03;108084;1254;70402;-64
2024/02/12 00:35:06;;;;;;;213.50;43.20;;;;;;;9.17;64.35;98970.81;108065;1254;72725;-65
2024/02/12 00:37:36;;;;;;;151.70;38.80;;;;;;;9.25;64.05;98974.06;108184;1254;60877;-66
2024/02/12 00:40:08;;;;;;;161.20;42.40;;;;;;;9.26;64.24;98976.13;108134;1253;60379;-66
2024/02/12 00:42:36;;;;;;;179.30;42.30;;;;;;;9.27;64.21;98975.35;108157;1253;73828;-66
2024/02/12 00:45:09;;;;;;;204.80;54.10;;;;;;;9.30;64.23;98971.02;108134;1254;69206;-63
2024/02/12 00:47:39;;;;;;;126.80;40.40;;;;;;;9.30;64.23;98966.46;108149;1253;72674;-62
2024/02/12 00:50:09;;;;;;;135.90;41.20;;;;;;;9.34;64.16;98962.95;108211;1253;60321;-64
2024/02/12 00:52:37;;;;;;;165.30;39.80;;;;;;;9.34;64.05;98959.63;108211;1254;60625;-62
2024/02/12 00:55:07;;;;;;;112.90;34.00;;;;;;;9.38;63.98;98952.95;108122;1253;72635;-64
2024/02/12 00:57:34;;;;;;;129.60;38.70;;;;;;;9.30;64.33;98955.45;108142;1253;70080;-65
2024/02/12 01:00:03;;;;;;;100.80;32.30;;;;;;;9.43;63.98;98961.63;108197;1254;72723;-65
2024/02/12 01:02:33;;;;;;;105.00;32.70;;;;;;;9.46;64.06;98956.20;108174;1253;60413;-65
2024/02/12 01:05:01;;;;;;;108.60;34.00;;;;;;;9.53;64.01;98950.09;108172;1254;60389;-65
2024/02/12 01:07:29;;;;;;;126.50;35.60;;;;;;;9.60;63.88;98943.60;108152;1253;73921;-63
2024/02/12 01:09:57;;;;;;;105.30;34.00;;;;;;;9.53;64.11;98940.77;108161;1253;69054;-65
2024/02/12 01:12:24;;;;;;;102.90;34.80;;;;;;;9.47;64.43;98938.48;108162;1254;72449;-64
2024/02/12 01:14:53;;;;;;;143.00;38.20;;;;;;;9.56;64.23;98926.99;108149;1253;59622;-62
2024/02/12 01:17:22;;;;;;;97.10;35.00;;;;;;;9.60;63.95;98924.66;108065;1254;60478;-67
2024/02/12 01:19:53;;;;;;;154.60;40.10;;;;;;;9.61;64.06;98919.90;108162;1253;72558;-61
2024/02/12 01:22:21;;;;;;;135.40;35.70;;;;;;;9.55;64.26;98919.30;108200;1253;69213;-60
2024/02/12 01:24:49;;;;;;;146.10;37.60;;;;;;;9.58;64.15;98916.15;108070;1254;72570;-62
2024/02/12 01:27:17;;;;;;;103.00;35.00;;;;;;;9.52;64.46;98916.33;108079;1254;60357;-61
2024/02/12 01:29:48;;;;;;;89.50;29.50;;;;;;;9.47;64.69;98909.58;108167;1253;60003;-64
2024/02/12 01:32:16;;;;;;;78.30;28.90;;;;;;;9.43;64.99;98906.62;107995;1254;72218;-62
2024/02/12 01:34:44;;;;;;;114.50;36.50;;;;;;;9.40;65.28;98901.86;108013;1254;72667;-64
2024/02/12 01:37:12;;;;;;;116.90;35.80;;;;;;;9.53;64.80;98902.29;108003;1256;71065;-66
2024/02/12 01:39:39;;;;;;;85.60;31.10;;;;;;;9.51;64.77;98902.55;107993;1254;60579;-66
2024/02/12 01:42:13;;;;;;;75.10;30.30;;;;;;;9.56;64.71;98907.37;108059;1254;60937;-65
2024/02/12 01:45:00;;;;;;;106.90;33.20;;;;;;;9.63;64.50;98908.58;108034;1254;73750;-68
2024/02/12 01:47:27;;;;;;;120.90;35.00;;;;;;;9.75;64.18;98910.89;108007;1254;70138;-63
2024/02/12 01:49:57;;;;;;;114.60;33.60;;;;;;;9.74;64.15;98910.60;108061;1254;72702;-65
2024/02/12 01:52:26;;;;;;;97.30;32.50;;;;;;;9.72;64.22;98917.21;107910;1255;60352;-65
2024/02/12 01:54:55;;;;;;;140.50;36.50;;;;;;;9.77;64.03;98917.45;108117;1254;60351;-63
2024/02/12 01:57:23;;;;;;;130.60;36.10;;;;;;;9.78;63.88;98914.78;107946;1254;72587;-62
2024/02/12 01:59:51;;;;;;;132.00;35.50;;;;;;;9.76;63.77;98913.98;107997;1254;70134;-63
2024/02/12 02:02:20;;;;;;;100.60;32.20;;;;;;;9.76;63.69;98912.22;108013;1259;72691;-62
2024/02/12 02:04:50;;;;;;;205.30;38.90;;;;;;;9.70;63.82;98917.66;108027;1254;60861;-63
2024/02/12 02:07:21;;;;;;;148.50;36.50;;;;;;;9.70;63.68;98914.66;107998;1254;60338;-64
2024/02/12 02:09:50;;;;;;;91.80;30.50;;;;;;;9.69;63.77;98917.00;108063;1254;72575;-65
2024/02/12 02:12:18;;;;;;;140.00;36.40;;;;;;;9.64;64.06;98923.40;108109;1254;70713;-63
2024/02/12 02:14:45;;;;;;;85.60;32.00;;;;;;;9.63;63.97;98932.89;108103;1254;71375;-65
2024/02/12 02:17:13;;;;;;;123.70;34.90;;;;;;;9.48;64.34;98932.15;108033;1257;61020;-66
2024/02/12 02:19:42;;;;;;;148.00;38.00;;;;;;;9.49;64.42;98933.15;108045;1254;59659;-66
2024/02/12 02:22:09;;;;;;;157.20;41.40;;;;;;;9.61;63.99;98934.05;108048;1254;72661;-65
2024/02/12 02:24:38;;;;;;;159.90;36.50;;;;;;;9.65;63.83;98938.26;108040;1254;69941;-63
2024/02/12 02:27:06;;;;;;;79.40;32.90;;;;;;;9.61;63.92;98940.06;108053;1254;71180;-64
2024/02/12 02:29:37;;;;;;;87.70;34.20;;;;;;;9.52;64.25;98940.13;108125;1254;60392;-65
2024/02/12 02:32:05;;;;;;;96.60;33.80;;;;;;;9.58;64.09;98935.81;108059;1254;60463;-66
2024/02/12 02:34:33;;;;;;;116.20;34.80;;;;;;;9.58;64.20;98932.82;108099;1253;73866;-66
2024/02/12 02:37:03;;;;;;;136.20;36.40;;;;;;;9.56;64.29;98933.11;108128;1254;68733;-65
2024/02/12 02:39:31;;;;;;;100.70;34.00;;;;;;;9.50;64.41;98934.84;108014;1259;72667;-64
2024/02/12 02:42:00;;;;;;;118.10;34.80;;;;;;;9.49;64.46;98931.55;108113;1254;60970;-64
2024/02/12 02:44:27;;;;;;;128.10;35.30;;;;;;;9.58;64.31;98933.72;108050;1253;60338;-67
2024/02/12 02:46:55;;;;;;;138.70;35.90;;;;;;;9.61;64.19;98935.48;108190;1252;74016;-65
2024/02/12 02:49:24;;;;;;;94.20;31.40;;;;;;;9.62;64.21;98929.25;108216;1254;69662;-67
2024/02/12 02:51:52;;;;;;;195.20;40.20;;;;;;;9.61;64.32;98926.70;108155;1254;71377;-66
2024/02/12 02:54:21;;;;;;;122.60;35.10;;;;;;;9.63;64.34;98928.55;108138;1253;61075;-65
2024/02/12 02:56:49;;;;;;;116.30;36.30;;;;;;;9.56;64.56;98930.32;108156;1253;62229;-64
2024/02/12 02:59:16;;;;;;;131.30;34.40;;;;;;;9.58;64.61;98932.47;108065;1253;72829;-65
2024/02/12 03:01:44;;;;;;;76.30;30.70;;;;;;;9.63;64.42;98941.30;108213;1253;69213;-66
2024/02/12 03:04:14;;;;;;;155.30;38.30;;;;;;;9.63;64.38;98944.81;108165;1256;71433;-64
2024/02/12 03:06:41;;;;;;;137.30;38.00;;;;;;;9.48;64.88;98938.77;108175;1253;60296;-65
2024/02/12 03:09:10;;;;;;;105.70;34.70;;;;;;;9.52;64.82;98944.89;108168;1253;60552;-66
2024/02/12 03:11:39;;;;;;;124.80;37.40;;;;;;;9.57;64.89;98936.04;108172;1253;73228;-65
2024/02/12 03:14:08;;;;;;;131.30;35.50;;;;;;;9.59;64.81;98929.95;108157;1256;69079;-68
2024/02/12 03:16:36;;;;;;;167.40;47.50;;;;;;;9.65;64.72;98920.73;108173;1253;72621;-67
2024/02/12 03:19:08;;;;;;;135.30;37.80;;;;;;;9.60;64.91;98934.46;108170;1253;60401;-66
2024/02/12 03:21:35;;;;;;;142.00;39.10;;;;;;;9.63;64.74;98935.02;108136;1254;60360;-65
2024/02/12 03:24:03;;;;;;;124.00;38.00;;;;;;;9.58;64.95;98926.34;108170;1253;72405;-66
2024/02/12 03:26:31;;;;;;;174.90;41.60;;;;;;;9.52;65.04;98916.84;108236;1253;69239;-66
2024/02/12 03:28:58;;;;;;;130.70;38.40;;;;;;;9.55;65.06;98917.42;108179;1253;74972;-64
2024/02/12 03:31:26;;;;;;;138.90;38.30;;;;;;;9.56;64.93;98913.31;108217;1255;60841;-65
2024/02/12 03:33:53;;;;;;;122.60;34.60;;;;;;;9.58;64.82;98909.51;107990;1254;60457;-66
2024/02/12 03:36:21;;;;;;;134.50;39.00;;;;;;;9.46;65.26;98910.64;108068;1254;73859;-66
2024/02/12 03:38:48;;;;;;;166.50;38.80;;;;;;;9.52;65.12;98912.48;108010;1254;69274;-66
2024/02/12 03:41:23;;;;;;;103.40;34.60;;;;;;;9.52;65.10;98915.82;108025;1254;72746;-64
2024/02/12 03:43:57;;;;;;;91.90;35.50;;;;;;;9.49;65.19;98914.04;108004;1254;60896;-65
2024/02/12 03:46:31;;;;;;;94.60;36.70;;;;;;;9.46;65.22;98911.89;108049;1253;60485;-63
2024/02/12 04:00:11;;;;;;;113.30;38.70;;;;;;;9.62;64.93;98907.21;108040;1254;60283;-64
2024/02/12 04:02:39;;;;;;;113.00;39.70;;;;;;;9.63;64.79;98899.43;108065;1254;73909;-65
2024/02/12 04:05:07;;;;;;;99.70;37.30;;;;;;;9.62;64.80;98898.77;108034;1253;68901;-66
2024/02/12 04:07:34;;;;;;;100.10;40.90;;;;;;;9.57;64.89;98897.66;108078;1257;71464;-67
2024/02/12 04:10:02;;;;;;;66.40;32.30;;;;;;;9.49;65.11;98902.45;107938;1254;60886;-65
2024/02/12 04:12:31;;;;;;;80.10;38.00;;;;;;;9.48;65.17;98903.22;108096;1254;60321;-65
2024/02/12 04:15:00;;;;;;;87.10;36.80;;;;;;;9.48;65.17;98900.56;108098;1254;73811;-64
2024/02/12 04:17:28;;;;;;;88.20;36.00;;;;;;;9.51;65.11;98899.36;108082;1254;70319;-66
2024/02/12 04:19:56;;;;;;;80.50;36.10;;;;;;;9.46;65.18;98901.92;107933;1254;72686;-66
2024/02/12 04:22:26;;;;;;;139.50;42.00;;;;;;;9.57;64.86;98904.66;108113;1254;60945;-66
2024/02/12 04:24:54;;;;;;;106.60;36.30;;;;;;;9.63;64.65;98891.71;108082;1254;60338;-67
2024/02/12 04:27:22;;;;;;;86.10;35.30;;;;;;;9.57;64.77;98897.52;108024;1254;73972;-67
2024/02/12 04:29:51;;;;;;;84.90;35.30;;;;;;;9.52;64.90;98899.88;108094;1253;69994;-66
2024/02/12 04:32:19;;;;;;;69.50;32.60;;;;;;;9.48;64.90;98891.29;108004;1256;72040;-66
2024/02/12 04:34:48;;;;;;;90.50;34.60;;;;;;;9.48;64.89;98889.88;108035;1254;60345;-66
2024/02/12 04:37:15;;;;;;;68.50;28.70;;;;;;;9.44;65.00;98889.55;108068;1254;60408;-66
2024/02/12 04:39:43;;;;;;;74.40;31.70;;;;;;;9.36;65.26;98891.37;108023;1258;73862;-65
2024/02/12 04:42:10;;;;;;;83.40;30.70;;;;;;;9.32;65.46;98900.52;108029;1254;70109;-66
2024/02/12 04:44:38;;;;;;;69.50;34.20;;;;;;;9.43;65.12;98903.12;107952;1254;70273;-67
2024/02/12 04:47:06;;;;;;;87.60;35.20;;;;;;;9.33;65.45;98904.31;108035;1253;60441;-65
2024/02/12 04:49:36;;;;;;;110.70;37.60;;;;;;;9.37;65.35;98910.76;108061;1254;60424;-65
2024/02/12 04:52:05;;;;;;;75.10;36.60;;;;;;;9.30;65.54;98908.33;108048;1254;76011;-66
2024/02/12 04:54:34;;;;;;;80.80;34.20;;;;;;;9.34;65.48;98909.16;108064;1253;68835;-65
2024/02/12 04:57:01;;;;;;;64.30;31.90;;;;;;;9.28;65.71;98904.77;108128;1254;73249;-65
2024/02/12 04:59:29;;;;;;;133.60;41.20;;;;;;;9.34;65.53;98904.27;108062;1254;60946;-65
2024/02/12 05:01:57;;;;;;;92.80;37.50;;;;;;;9.47;65.07;98914.30;108092;1254;60260;-67
2024/02/12 05:04:25;;;;;;;73.10;32.30;;;;;;;9.55;64.71;98919.66;108042;1254;73839;-66
2024/02/12 05:06:53;;;;;;;90.60;35.00;;;;;;;9.52;64.74;98918.95;108045;1253;72641;-66
2024/02/12 05:09:20;;;;;;;79.00;31.80;;;;;;;9.56;64.67;98914.36;108090;1258;72678;-67
2024/02/12 05:11:49;;;;;;;118.00;39.50;;;;;;;9.56;64.54;98909.98;108037;1253;60892;-64
2024/02/12 05:14:19;;;;;;;95.50;37.40;;;;;;;9.53;64.72;98907.17;108136;1253;60448;-67
2024/02/12 05:16:47;;;;;;;68.70;32.80;;;;;;;9.50;64.83;98909.60;108136;1254;72849;-66
2024/02/12 05:24:47;;;;;;;103.90;36.20;;;;;;;9.47;65.04;98914.47;108044;1254;60804;-66
2024/02/12 05:27:15;;;;;;;114.50;35.90;;;;;;;9.46;65.13;98917.32;108098;1253;60656;-65
2024/02/12 05:29:43;;;;;;;94.00;33.80;;;;;;;9.40;65.30;98924.13;108100;1254;72637;-66
2024/02/12 05:32:11;;;;;;;108.90;38.00;;;;;;;9.34;65.39;98934.76;108060;1253;69926;-67
2024/02/12 05:34:41;;;;;;;105.00;33.00;;;;;;;9.40;65.29;98931.63;108120;1254;71553;-67
2024/02/12 05:37:09;;;;;;;106.50;40.40;;;;;;;9.43;65.16;98936.36;108050;1254;60913;-65
2024/02/12 05:39:37;;;;;;;111.30;34.90;;;;;;;9.53;64.98;98939.24;108080;1254;60028;-67
2024/02/12 05:42:05;;;;;;;106.60;39.10;;;;;;;9.62;64.71;98938.41;108115;1254;72583;-66
2024/02/12 05:44:33;;;;;;;119.70;35.50;;;;;;;9.61;64.68;98945.81;108131;1253;70045;-65
2024/02/12 05:47:01;;;;;;;97.80;37.00;;;;;;;9.59;64.64;98950.63;108217;1253;71444;-66
2024/02/12 05:49:30;;;;;;;97.80;38.40;;;;;;;9.49;64.85;98949.42;108204;1254;60793;-66
2024/02/12 05:51:58;;;;;;;119.80;39.70;;;;;;;9.49;64.89;98952.92;108079;1253;60328;-67
2024/02/12 05:54:26;;;;;;;85.30;34.10;;;;;;;9.54;64.80;98953.73;108137;1254;73856;-67
2024/02/12 05:56:54;;;;;;;100.30;37.10;;;;;;;9.57;64.76;98951.64;108118;1256;68879;-67
2024/02/12 05:59:21;;;;;;;82.20;37.50;;;;;;;9.44;65.25;98953.69;108045;1254;71786;-66
2024/02/12 06:01:50;;;;;;;89.30;36.00;;;;;;;9.49;65.18;98955.52;108077;1253;60911;-65
2024/02/12 06:04:18;;;;;;;88.70;34.40;;;;;;;9.55;65.11;98955.92;108091;1254;60014;-67
2024/02/12 06:06:45;;;;;;;114.90;42.40;;;;;;;9.59;65.05;98951.36;107999;1254;73412;-67
2024/02/12 06:09:13;;;;;;;98.20;35.50;;;;;;;9.63;64.66;98949.23;108135;1253;69803;-66
2024/02/12 06:11:41;;;;;;;95.80;40.80;;;;;;;9.61;64.77;98944.73;108142;1254;71476;-67
2024/02/12 06:14:09;;;;;;;97.70;39.00;;;;;;;9.60;64.87;98942.19;108049;1254;60922;-66
2024/02/12 06:16:37;;;;;;;91.20;34.60;;;;;;;9.60;64.99;98948.48;108021;1257;60194;-67
2024/02/12 06:19:07;;;;;;;81.40;35.00;;;;;;;9.53;65.05;98937.28;108063;1254;72587;-66
2024/02/12 06:21:35;;;;;;;90.40;36.50;;;;;;;9.55;65.00;98925.30;108068;1254;71210;-66
2024/02/12 06:24:04;;;;;;;90.50;34.80;;;;;;;9.60;65.04;98919.05;108025;1255;71648;-64
2024/02/12 06:26:33;;;;;;;112.40;36.60;;;;;;;9.63;65.08;98921.16;107976;1257;60825;-67
2024/02/12 06:29:01;;;;;;;78.80;33.40;;;;;;;9.49;65.47;98930.12;108056;1258;60447;-65
2024/02/12 06:31:28;;;;;;;99.90;33.10;;;;;;;9.46;65.67;98935.71;108056;1254;74547;-66
2024/02/12 06:33:56;;;;;;;56.90;29.40;;;;;;;9.48;65.56;98930.89;107976;1254;68732;-66
2024/02/12 06:36:23;;;;;;;94.60;33.50;;;;;;;9.50;65.50;98923.09;108030;1254;71371;-66
2024/02/12 06:38:51;;;;;;;116.30;36.50;;;;;;;9.53;65.44;98925.02;108023;1254;60866;-65
2024/02/12 06:41:20;;;;;;;102.10;35.90;;;;;;;9.55;65.41;98922.66;107893;1254;60572;-67
2024/02/12 06:43:48;;;;;;;114.30;38.50;;;;;;;9.64;65.13;98908.86;108003;1253;72622;-67
2024/02/12 06:46:16;;;;;;;103.80;32.90;;;;;;;9.65;65.21;98906.00;108034;1254;68706;-67
2024/02/12 06:48:45;;;;;;;90.80;35.70;;;;;;;9.67;65.16;98907.46;108024;1254;72677;-68
2024/02/12 06:51:13;;;;;;;92.00;35.70;;;;;;;9.79;64.87;98913.33;108047;1254;60454;-68
2024/02/12 06:53:46;;;;;;;104.30;35.40;;;;;;;9.76;64.92;98910.84;108069;1254;60290;-68
2024/02/12 06:56:14;;;;;;;101.40;40.30;;;;;;;9.81;64.78;98922.14;108075;1253;73936;-67
2024/02/12 06:58:42;;;;;;;87.20;34.60;;;;;;;9.86;64.72;98926.94;107953;1253;70336;-67
2024/02/12 07:01:12;;;;;;;99.40;41.20;;;;;;;9.90;64.84;98920.45;108031;1254;72654;-65
2024/02/12 07:03:41;;;;;;;109.80;42.10;;;;;;;9.93;64.93;98916.48;107998;1254;60274;-65
2024/02/12 07:06:12;;;;;;;111.80;42.30;;;;;;;9.92;64.97;98920.17;108103;1254;59527;-66
2024/02/12 07:08:41;;;;;;;94.30;40.70;;;;;;;9.85;65.14;98920.38;108075;1254;73874;-67
2024/02/12 07:11:15;;;;;;;67.90;35.70;;;;;;;9.93;65.07;98925.55;108097;1254;67860;-65
2024/02/12 07:13:44;;;;;;;93.60;40.50;;;;;;;10.01;64.80;98923.88;108066;1257;72694;-66
2024/02/12 07:16:30;;;;;;;98.70;41.40;;;;;;;10.12;64.63;98921.00;108283;1254;60830;-67
2024/02/12 07:18:59;;;;;;;84.20;38.80;;;;;;;10.13;64.62;98921.66;108136;1254;60328;-67
2024/02/12 07:21:26;;;;;;;71.30;37.80;;;;;;;10.11;64.65;98925.29;108199;1254;73889;-65
2024/02/12 07:23:54;;;;;;;59.00;32.10;;;;;;;10.08;64.80;98923.52;108339;1254;69184;-67
2024/02/12 07:26:22;;;;;;;81.60;33.50;;;;;;;10.03;65.10;98925.69;108243;1255;72641;-67
2024/02/12 07:28:50;;;;;;;48.70;28.50;;;;;;;10.04;64.82;98928.83;108258;1254;60456;-67
2024/02/12 07:31:17;;;;;;;64.50;31.50;;;;;;;10.10;64.59;98927.07;108102;1254;60300;-67
2024/02/12 07:33:45;;;;;;;51.60;29.00;;;;;;;10.08;64.70;98932.10;108073;1254;71978;-67
2024/02/12 07:36:13;;;;;;;51.40;31.90;;;;;;;10.16;64.60;98929.90;108082;1257;68998;-67
2024/02/12 07:38:40;;;;;;;66.60;31.80;;;;;;;10.11;64.79;98929.33;108032;1253;72695;-67
2024/02/12 07:41:08;;;;;;;58.70;29.30;;;;;;;10.22;64.52;98927.80;107969;1256;60284;-67
2024/02/12 07:43:38;;;;;;;69.80;33.70;;;;;;;10.23;64.80;98927.95;108070;1254;60323;-67
2024/02/12 07:46:05;;;;;;;49.70;28.20;;;;;;;10.27;64.68;98942.47;108033;1252;73928;-65
2024/02/12 07:48:33;;;;;;;42.40;25.00;;;;;;;10.15;65.05;98942.09;108040;1258;70475;-67
2024/02/12 07:51:00;;;;;;;68.10;28.50;;;;;;;10.10;64.90;98945.00;108065;1254;73115;-67
2024/02/12 07:53:29;;;;;;;77.70;31.40;;;;;;;10.25;64.54;98942.75;108100;1257;60416;-67
2024/02/12 07:55:57;;;;;;;69.30;29.40;;;;;;;10.43;64.28;98945.86;108116;1258;60128;-67
2024/02/12 07:58:24;;;;;;;43.50;24.80;;;;;;;10.34;64.32;98945.81;108148;1254;73923;-67
2024/02/12 08:00:52;;;;;;;52.30;24.30;;;;;;;10.40;64.23;98944.77;108122;1253;70484;-67
2024/02/12 08:03:20;;;;;;;60.70;28.40;;;;;;;10.48;64.13;98944.50;108087;1252;71724;-67
2024/02/12 08:05:49;;;;;;;54.90;26.40;;;;;;;10.57;64.17;98938.60;108101;1253;60907;-67
2024/02/12 08:08:16;;;;;;;60.50;27.60;;;;;;;10.53;64.31;98936.35;108180;1254;60049;-66
2024/02/12 08:10:45;;;;;;;51.80;27.40;;;;;;;10.50;64.39;98927.03;108102;1254;73871;-69
2024/02/12 08:13:13;;;;;;;54.80;26.70;;;;;;;10.53;64.20;98925.10;108074;1253;72501;-68
2024/02/12 08:15:41;;;;;;;64.30;28.50;;;;;;;10.62;64.16;98925.66;108050;1254;72426;-66
2024/02/12 08:18:09;;;;;;;67.90;28.50;;;;;;;10.64;64.17;98923.92;108053;1253;61302;-68
2024/02/12 08:20:37;;;;;;;92.60;32.80;;;;;;;10.59;64.52;98929.35;108048;1253;59125;-67
2024/02/12 08:23:06;;;;;;;67.30;30.50;;;;;;;10.48;64.67;98934.18;108105;1254;74002;-67
2024/02/12 08:25:38;;;;;;;68.10;28.10;;;;;;;10.53;64.72;98938.29;107979;1254;70380;-67
2024/02/12 08:28:07;;;;;;;69.00;32.10;;;;;;;10.65;64.52;98936.55;107965;1254;163093;-67
2024/02/12 08:32:07;;;;;;;48.20;28.70;;;;;;;8.53;72.62;98945.80;104917;1294;600938;-67
2024/02/12 08:34:39;;;;;;;73.30;31.50;;;;;;;9.36;69.81;98947.59;107267;1266;60839;-67
2024/02/12 08:37:08;;;;;;;56.60;26.90;;;;;;;9.59;68.76;98943.61;107324;1270;59144;-67
2024/02/12 08:39:41;;;;;;;64.50;29.60;;;;;;;9.63;68.50;98945.38;107266;1266;72397;-67
2024/02/12 08:42:09;;;;;;;55.10;28.40;;;;;;;9.61;68.54;98945.80;107283;1267;69646;-67
2024/02/12 08:44:36;;;;;;;53.10;28.50;;;;;;;9.57;68.94;98943.59;107127;1267;154040;-67
2024/02/12 08:47:04;;;;;;;66.60;27.20;;;;;;;9.50;68.84;98945.32;107389;1264;62121;-69
2024/02/12 08:49:32;;;;;;;40.60;23.80;;;;;;;9.58;68.82;98949.48;107407;1264;59151;-67
2024/02/12 08:51:59;;;;;;;79.90;27.20;;;;;;;9.44;69.30;98951.77;107369;1263;74500;-67
2024/02/12 08:54:30;;;;;;;61.90;27.90;;;;;;;9.55;69.11;98953.84;107384;1264;70544;-67
2024/02/12 08:56:58;;;;;;;70.50;31.10;;;;;;;9.59;69.45;98956.77;107395;1263;72833;-67
2024/02/12 08:59:26;;;;;;;47.50;25.30;;;;;;;9.63;69.69;98960.26;107445;1264;60216;-69
2024/02/12 09:01:54;;;;;;;71.30;30.20;;;;;;;9.68;69.54;98957.39;107429;1264;59534;-67
2024/02/12 09:04:22;;;;;;;65.40;28.10;;;;;;;9.69;69.40;98956.78;107383;1268;72942;-68
2024/02/12 09:06:49;;;;;;;63.20;29.90;;;;;;;9.80;69.45;98945.36;107298;1264;70489;-67
2024/02/12 09:09:17;;;;;;;56.30;24.90;;;;;;;9.87;69.20;98943.92;107415;1264;72719;-67
2024/02/12 09:11:45;;;;;;;67.90;28.00;;;;;;;9.97;68.79;98944.27;107435;1260;61025;-67
2024/02/12 09:14:13;;;;;;;77.30;27.10;;;;;;;10.06;68.38;98944.34;107443;1261;59539;-64
2024/02/12 09:16:40;;;;;;;40.80;23.20;;;;;;;10.10;68.16;98945.33;108091;1254;72218;-68
2024/02/12 09:19:08;;;;;;;51.10;27.40;;;;;;;10.04;68.65;98942.83;107924;1254;69326;-66
2024/02/12 09:21:38;;;;;;;65.10;27.90;;;;;;;9.98;69.20;98944.04;107977;1254;71046;-66
2024/02/12 09:24:07;;;;;;;56.80;25.40;;;;;;;10.13;68.65;98938.70;107973;1254;59717;-66
2024/02/12 09:26:36;;;;;;;71.60;29.30;;;;;;;10.19;68.47;98935.51;107981;1255;59403;-66
2024/02/12 09:29:03;;;;;;;53.80;26.00;;;;;;;10.22;68.38;98931.17;107868;1257;72671;-67
2024/02/12 09:31:34;;;;;;;41.20;25.00;;;;;;;10.27;68.13;98932.13;107862;1257;68865;-66
2024/02/12 09:34:02;;;;;;;41.90;25.00;;;;;;;10.41;67.98;98935.76;107821;1257;71925;-66
2024/02/12 09:36:30;;;;;;;67.70;32.10;;;;;;;10.51;67.80;98938.05;107820;1257;61817;-67
2024/02/12 09:38:58;;;;;;;69.00;33.60;;;;;;;10.55;67.87;98935.01;107817;1255;62238;-67
2024/02/12 09:41:26;;;;;;;68.20;31.10;;;;;;;10.73;67.58;98935.02;107833;1256;74434;-66
2024/02/12 09:43:57;;;;;;;88.50;33.60;;;;;;;10.69;67.29;98935.06;107829;1257;68953;-69
2024/02/12 09:46:25;;;;;;;;;;;;;;;10.62;67.22;98934.23;107780;1257;72711;-67
2024/02/12 09:48:52;;;;;;;49.00;26.60;;;;;;;10.58;67.50;98932.41;107668;1257;60905;-63
2024/02/12 09:51:20;;;;;;;57.70;27.10;;;;;;;10.49;67.67;98938.33;107801;1255;62299;-64
2024/02/12 09:53:51;;;;;;;42.70;24.30;;;;;;;10.39;67.62;98931.48;107664;1257;73131;-64
2024/02/12 09:56:19;;;;;;;;;;;;;;;10.46;67.27;98938.33;107756;1257;72540;-64
2024/02/12 09:58:47;;;;;;;59.60;30.90;;;;;;;10.45;67.57;98938.72;107758;1260;73463;-65
2024/02/12 10:01:14;;;;;;;51.60;27.40;;;;;;;10.34;67.78;98936.51;107794;1257;63161;-66
2024/02/12 10:03:43;;;;;;;99.30;35.00;;;;;;;10.27;67.68;98938.45;107789;1255;60921;-66
2024/02/12 10:06:12;;;;;;;52.00;27.10;;;;;;;10.42;67.44;98937.32;107815;1256;73509;-67
2024/02/12 10:08:41;;;;;;;61.70;28.60;;;;;;;10.46;67.57;98932.50;107780;1257;69203;-66
2024/02/12 10:11:09;;;;;;;62.00;31.20;;;;;;;10.47;67.84;98933.88;107790;1257;73174;-68
2024/02/12 10:13:36;;;;;;;59.10;28.00;;;;;;;10.57;67.69;98933.84;107798;1257;59989;-68
2024/02/12 10:16:05;;;;;;;58.50;29.50;;;;;;;10.39;68.06;98933.58;107633;1256;61023;-66
2024/02/12 10:18:32;;;;;;;71.80;32.90;;;;;;;10.42;68.00;98928.20;107699;1257;72838;-67
2024/02/12 10:21:01;;;;;;;60.50;28.70;;;;;;;10.24;68.84;98928.77;107847;1256;69227;-66
2024/02/12 10:23:29;;;;;;;56.60;28.10;;;;;;;10.34;68.40;98922.10;108050;1254;70538;-66
2024/02/12 10:25:56;;;;;;;51.70;26.70;;;;;;;10.25;69.04;98925.23;107998;1253;60805;-66
2024/02/12 10:28:24;;;;;;;57.90;27.00;;;;;;;10.25;69.15;98919.23;107894;1254;59862;-67
2024/02/12 10:30:51;;;;;;;55.60;26.40;;;;;;;10.34;68.93;98916.84;108045;1253;72033;-67
2024/02/12 10:33:20;;;;;;;55.10;26.30;;;;;;;10.39;69.01;98915.74;108062;1254;72400;-67
2024/02/12 10:35:48;;;;;;;64.70;30.20;;;;;;;10.57;68.42;98919.77;108035;1254;74114;-66
2024/02/12 10:38:16;;;;;;;52.70;26.40;;;;;;;10.69;68.03;98917.16;107999;1254;59783;-67
2024/02/12 10:41:10;;;;;;;70.10;29.60;;;;;;;10.74;68.07;98915.71;108124;1254;60474;-67
2024/02/12 10:43:40;;;;;;;74.00;30.80;;;;;;;10.84;67.64;98920.70;108017;1254;73071;-67
2024/02/12 10:46:07;;;;;;;58.00;27.50;;;;;;;10.80;67.88;98920.80;108044;1254;69547;-67
2024/02/12 10:48:38;;;;;;;63.20;28.20;;;;;;;10.81;67.80;98916.89;108078;1254;73181;-66
2024/02/12 10:51:06;;;;;;;;;;;;;;;10.87;67.68;98914.74;108094;1254;62592;-66
2024/02/12 10:53:35;;;;;;;74.50;29.00;;;;;;;10.87;67.95;98908.45;108086;1254;59509;-67
2024/02/12 10:56:04;;;;;;;60.00;27.10;;;;;;;10.78;68.46;98899.13;108068;1253;73274;-66
2024/02/12 10:58:32;;;;;;;75.90;31.40;;;;;;;10.73;68.96;98901.20;108127;1254;70539;-67
2024/02/12 11:01:00;;;;;;;58.40;27.00;;;;;;;10.78;68.96;98901.21;108103;1254;72773;-67
2024/02/12 11:03:35;;;;;;;85.80;34.40;;;;;;;10.79;69.05;98901.21;108075;1254;60600;-67
2024/02/12 11:06:14;;;;;;;65.30;28.30;;;;;;;10.76;69.15;98898.55;108055;1253;59430;-66
2024/02/12 11:08:42;;;;;;;66.30;27.30;;;;;;;10.66;69.59;98895.92;108095;1254;74655;-66
2024/02/12 11:11:18;;;;;;;55.00;26.40;;;;;;;10.66;69.47;98893.84;108063;1253;70616;-67
2024/02/12 11:13:47;;;;;;;70.50;27.10;;;;;;;10.72;69.32;98891.41;108038;1254;71414;-67
2024/02/12 11:16:15;;;;;;;74.30;29.50;;;;;;;10.80;69.03;98882.89;108083;1253;61247;-66
2024/02/12 11:18:59;;;;;;;63.50;26.30;;;;;;;10.91;68.82;98881.52;108067;1253;59702;-65
2024/02/12 11:21:38;;;;;;;57.00;25.80;;;;;;;10.82;69.33;98884.66;108006;1253;75297;-66
2024/02/12 11:24:07;;;;;;;80.30;31.60;;;;;;;10.98;68.72;98885.65;108059;1253;71481;-67
2024/02/12 11:26:43;;;;;;;79.90;30.00;;;;;;;11.06;68.38;98882.57;108007;1254;71976;-67
2024/02/12 11:29:11;;;;;;;73.50;32.60;;;;;;;11.03;68.58;98883.94;108016;1254;60988;-66
2024/02/12 11:31:40;;;;;;;76.50;33.10;;;;;;;11.03;68.71;98884.66;108117;1253;59254;-66
2024/02/12 11:34:11;;;;;;;71.10;27.40;;;;;;;11.07;68.85;98883.88;108111;1254;72432;-66
2024/02/12 11:36:40;;;;;;;72.70;30.90;;;;;;;11.01;69.31;98885.34;108065;1254;69478;-67